Time;durP1;ratioP1;P1;durP2;ratioP2;P2;SDS_P1;SDS_P2;PMS_P1;PMS_P2;Temp;Humidity;BMP_temperature;BMP_pressure;BME280_temperature;BME280_humidity;BME280_pressure;Samples;Min_cycle;Max_cycle;Signal;HPM_P1;HPM_P2
2022/09/15 00:00:26;;;;;;;7.20;3.53;;;10.70;99.90;;;;;;5042439;28;20521;-41
2022/09/15 00:02:52;;;;;;;4.70;3.55;;;10.50;99.90;;;;;;5042863;28;20041;-41
2022/09/15 00:05:18;;;;;;;7.32;3.58;;;10.30;99.90;;;;;;5042632;28;20045;-40
2022/09/15 00:07:44;;;;;;;7.95;3.53;;;10.30;99.90;;;;;;5041984;28;20053;-40
2022/09/15 00:10:10;;;;;;;7.35;3.90;;;10.40;99.90;;;;;;5042539;28;20037;-40
2022/09/15 00:12:36;;;;;;;8.77;4.32;;;12.10;99.90;;;;;;5042531;28;20049;-40
2022/09/15 00:15:02;;;;;;;4.40;3.70;;;10.80;99.90;;;;;;5043054;28;20048;-40
2022/09/15 00:17:28;;;;;;;9.40;4.18;;;10.60;99.90;;;;;;5040740;28;20095;-41
2022/09/15 00:19:54;;;;;;;7.50;3.80;;;10.80;99.90;;;;;;5043819;28;20041;-41
2022/09/15 00:22:19;;;;;;;7.75;4.40;;;10.70;99.90;;;;;;5044543;28;20112;-41
2022/09/15 00:24:48;;;;;;;8.73;4.43;;;11.10;99.90;;;;;;5044558;28;20715;-41
2022/09/15 00:27:16;;;;;;;7.30;4.68;;;10.80;99.90;;;;;;5044859;28;20403;-41
2022/09/15 00:29:42;;;;;;;7.72;4.63;;;11.50;99.90;;;;;;5044695;28;20091;-41
2022/09/15 00:32:08;;;;;;;6.88;4.95;;;11.00;99.90;;;;;;5044572;28;20041;-41
2022/09/15 00:34:34;;;;;;;7.63;4.80;;;11.10;99.90;;;;;;5044525;28;20088;-40
2022/09/15 00:36:59;;;;;;;9.32;4.82;;;11.90;99.90;;;;;;5044598;28;20079;-40
2022/09/15 00:39:25;;;;;;;7.88;4.53;;;11.80;99.90;;;;;;5048700;28;20098;-40
2022/09/15 00:41:51;;;;;;;8.80;4.97;;;11.70;99.90;;;;;;5048469;28;20118;-40
2022/09/15 00:44:34;;;;;;;7.15;4.90;;;12.00;99.90;;;;;;5048399;28;20049;-41
2022/09/15 00:47:03;;;;;;;8.45;5.40;;;11.40;99.90;;;;;;5048037;28;20045;-40
2022/09/15 00:49:33;;;;;;;9.35;5.28;;;11.50;99.90;;;;;;5048385;28;20052;-40
2022/09/15 00:52:06;;;;;;;9.20;5.60;;;11.60;99.90;;;;;;5048929;28;20490;-40
2022/09/15 00:54:49;;;;;;;8.43;4.88;;;11.70;99.90;;;;;;5048583;28;20498;-41
2022/09/15 00:57:26;;;;;;;10.90;6.65;;;11.70;99.90;;;;;;5048573;28;20052;-40
2022/09/15 00:59:53;;;;;;;10.45;5.75;;;12.10;99.90;;;;;;5048337;28;20045;-41
2022/09/15 01:02:29;;;;;;;12.82;5.75;;;11.80;99.90;;;;;;5048119;28;20056;-40
2022/09/15 01:04:56;;;;;;;6.28;5.10;;;12.00;99.90;;;;;;5048442;28;20580;-41
2022/09/15 01:07:38;;;;;;;8.93;5.00;;;12.30;99.90;;;;;;5048343;28;20091;-41
2022/09/15 01:10:36;;;;;;;7.25;5.63;;;12.00;99.90;;;;;;5027765;28;20052;-41
2022/09/15 01:13:05;;;;;;;9.00;4.72;;;12.00;99.90;;;;;;5027921;28;20114;-41
2022/09/15 01:15:37;;;;;;;8.50;5.68;;;12.10;99.90;;;;;;5028215;28;20627;-42
2022/09/15 01:18:34;;;;;;;8.70;4.50;;;12.10;99.90;;;;;;5028072;28;20045;-42
2022/09/15 01:21:24;;;;;;;7.35;5.13;;;12.20;99.90;;;;;;5027121;28;20064;-41
2022/09/15 01:24:34;;;;;;;11.40;5.15;;;12.20;99.90;;;;;;5028421;28;20048;-40
2022/09/15 01:27:19;;;;;;;8.02;4.47;;;12.20;99.90;;;;;;5028284;28;20091;-40
2022/09/15 01:30:11;;;;;;;8.90;5.63;;;12.50;99.90;;;;;;5028020;28;20056;-41
2022/09/15 01:33:03;;;;;;;8.73;5.07;;;12.30;99.90;;;;;;5004539;28;20057;-42
2022/09/15 01:35:38;;;;;;;10.90;4.78;;;12.30;99.90;;;;;;5027894;28;20046;-41
2022/09/15 01:38:21;;;;;;;10.52;5.13;;;12.70;99.90;;;;;;5027714;28;20053;-41
2022/09/15 01:41:09;;;;;;;9.18;5.38;;;12.70;99.90;;;;;;5027558;28;20071;-41
2022/09/15 01:43:41;;;;;;;9.93;4.88;;;12.30;99.90;;;;;;5027385;28;20073;-41
2022/09/15 01:46:09;;;;;;;10.30;4.40;;;12.30;99.90;;;;;;5027761;28;20045;-41
2022/09/15 01:48:36;;;;;;;8.18;4.97;;;12.90;99.90;;;;;;5042026;28;20099;-41
2022/09/15 01:51:03;;;;;;;9.60;4.30;;;12.80;99.90;;;;;;5009311;28;20060;-41
2022/09/15 01:53:28;;;;;;;7.70;5.10;;;12.40;99.90;;;;;;5027427;28;20046;-40
2022/09/15 01:56:01;;;;;;;12.48;5.47;;;12.70;99.90;;;;;;5027720;28;20049;-41
2022/09/15 01:58:27;;;;;;;9.07;4.38;;;12.80;99.90;;;;;;5028178;28;20045;-41
2022/09/15 02:01:00;;;;;;;10.07;4.53;;;12.70;99.90;;;;;;5027296;28;20100;-41
2022/09/15 02:03:38;;;;;;;9.68;4.05;;;12.70;99.90;;;;;;5027535;28;20044;-41
2022/09/15 02:06:13;;;;;;;6.65;5.22;;;13.00;99.90;;;;;;5027035;28;20050;-42
2022/09/15 02:09:08;;;;;;;8.60;5.18;;;12.80;99.90;;;;;;5036039;28;20048;-40
2022/09/15 02:11:35;;;;;;;8.93;4.70;;;12.40;99.90;;;;;;5030814;28;20299;-41
2022/09/15 02:14:19;;;;;;;6.22;4.25;;;12.50;99.90;;;;;;5046977;28;20483;-41
2022/09/15 02:16:49;;;;;;;18.75;5.63;;;12.50;99.90;;;;;;5046717;28;20487;-40
2022/09/15 02:19:31;;;;;;;7.93;4.20;;;12.80;99.90;;;;;;5046588;28;20056;-41
2022/09/15 02:22:26;;;;;;;10.35;4.13;;;12.70;99.90;;;;;;5046759;28;20041;-41
2022/09/15 02:25:06;;;;;;;7.82;4.13;;;12.50;99.90;;;;;;5046918;28;20585;-41
2022/09/15 02:27:39;;;;;;;7.43;4.43;;;12.40;99.90;;;;;;5046745;28;20048;-42
2022/09/15 02:30:10;;;;;;;;;;;12.90;99.90;;;;;;5046996;28;20110;-41
2022/09/15 02:32:40;;;;;;;11.93;3.33;;;12.50;99.90;;;;;;5046699;28;20035;-41
2022/09/15 02:35:08;;;;;;;6.00;4.07;;;13.00;99.90;;;;;;5046534;28;20037;-40
2022/09/15 02:37:35;;;;;;;7.18;4.25;;;12.30;99.90;;;;;;5047027;28;20068;-40
2022/09/15 02:40:03;;;;;;;7.25;3.75;;;12.80;99.90;;;;;;5046608;28;20119;-41
2022/09/15 02:42:31;;;;;;;7.53;3.72;;;12.50;99.90;;;;;;5046674;28;20048;-41
2022/09/15 02:44:58;;;;;;;10.45;4.05;;;12.70;99.90;;;;;;5046118;28;20052;-40
2022/09/15 02:47:24;;;;;;;15.75;5.72;;;12.80;99.90;;;;;;5046662;28;20055;-41
2022/09/15 02:49:50;;;;;;;7.75;2.22;;;12.50;99.90;;;;;;5046498;28;20044;-40
2022/09/15 02:52:16;;;;;;;9.70;2.45;;;13.50;99.90;;;;;;5046999;28;20784;-41
2022/09/15 02:54:42;;;;;;;8.60;2.33;;;13.40;99.90;;;;;;5046459;28;20047;-40
2022/09/15 02:57:08;;;;;;;6.13;1.90;;;13.00;99.90;;;;;;5045634;28;20085;-40
2022/09/15 03:02:19;;;;;;;7.78;1.80;;;13.10;99.90;;;;;;5045908;28;20052;-40
2022/09/15 03:04:48;;;;;;;4.53;1.48;;;12.80;99.90;;;;;;5046438;28;20708;-41
2022/09/15 03:07:14;;;;;;;6.95;1.52;;;13.00;99.90;;;;;;5045993;28;20915;-41
2022/09/15 03:09:40;;;;;;;6.22;1.13;;;13.20;99.90;;;;;;5045690;28;20049;-41
2022/09/15 03:12:05;;;;;;;5.38;1.55;;;13.50;99.90;;;;;;5045847;28;20145;-40
2022/09/15 03:14:31;;;;;;;6.30;1.20;;;12.70;99.90;;;;;;5045840;28;20091;-43
2022/09/15 03:16:58;;;;;;;9.43;1.33;;;12.60;99.90;;;;;;5046227;28;20048;-40
2022/09/15 03:19:24;;;;;;;6.28;0.60;;;13.30;99.90;;;;;;5045867;28;20780;-40
2022/09/15 03:21:50;;;;;;;5.22;0.60;;;12.90;99.90;;;;;;5046012;28;20045;-40
2022/09/15 03:24:18;;;;;;;4.32;0.40;;;12.60;99.90;;;;;;5045461;28;20497;-40
2022/09/15 03:26:44;;;;;;;5.35;1.00;;;12.90;99.90;;;;;;5045921;28;20196;-42
2022/09/15 03:29:10;;;;;;;10.50;0.57;;;12.90;99.90;;;;;;5045952;28;20080;-40
2022/09/15 03:31:35;;;;;;;8.95;0.80;;;12.80;99.90;;;;;;5045921;28;20083;-40
2022/09/15 03:34:01;;;;;;;7.63;0.68;;;12.50;99.90;;;;;;5045968;28;20073;-41
2022/09/15 03:36:27;;;;;;;3.45;0.43;;;12.50;99.90;;;;;;5027854;28;20055;-41
2022/09/15 03:38:56;;;;;;;5.10;0.32;;;12.90;99.90;;;;;;5045561;28;20080;-40
2022/09/15 03:41:22;;;;;;;5.70;0.43;;;12.80;99.90;;;;;;5045632;28;20087;-41
2022/09/15 03:43:48;;;;;;;6.35;0.47;;;12.80;99.90;;;;;;5045954;28;20726;-41
2022/09/15 03:46:13;;;;;;;3.30;0.40;;;12.70;99.90;;;;;;5045420;28;20037;-41
2022/09/15 03:48:39;;;;;;;6.40;0.40;;;12.60;99.90;;;;;;5045769;28;20051;-40
2022/09/15 03:51:06;;;;;;;4.60;1.00;;;12.80;99.90;;;;;;5045328;28;20049;-40
2022/09/15 03:53:34;;;;;;;8.50;0.50;;;12.70;99.90;;;;;;5045308;28;20109;-40
2022/09/15 03:56:08;;;;;;;7.63;0.30;;;12.80;99.90;;;;;;5045104;28;20044;-40
2022/09/15 03:58:34;;;;;;;5.63;0.40;;;12.30;99.90;;;;;;5045117;28;20051;-41
2022/09/15 04:00:59;;;;;;;5.95;0.60;;;12.60;99.90;;;;;;5044947;28;20044;-40
2022/09/15 04:03:25;;;;;;;5.57;0.40;;;12.70;99.90;;;;;;5027283;28;20080;-40
2022/09/15 04:05:50;;;;;;;4.53;0.45;;;12.60;99.90;;;;;;5045673;28;20069;-40
2022/09/15 04:08:16;;;;;;;5.18;0.40;;;12.60;99.90;;;;;;5044886;28;20398;-41
2022/09/15 04:10:42;;;;;;;4.50;0.30;;;12.50;99.90;;;;;;5045122;28;20080;-40
2022/09/15 04:13:07;;;;;;;8.82;0.40;;;12.20;99.90;;;;;;5047177;28;20107;-40
2022/09/15 04:15:33;;;;;;;3.92;0.50;;;12.60;99.90;;;;;;5049110;28;20048;-41
2022/09/15 04:17:59;;;;;;;4.88;0.30;;;12.20;99.90;;;;;;5048783;28;20095;-40
2022/09/15 04:20:25;;;;;;;8.00;1.02;;;12.20;99.90;;;;;;5048981;28;20048;-41
2022/09/15 04:22:50;;;;;;;6.57;0.35;;;12.90;99.90;;;;;;5049052;28;20037;-41
2022/09/15 04:25:16;;;;;;;4.30;0.50;;;12.50;99.90;;;;;;5048524;28;20048;-41
2022/09/15 04:27:42;;;;;;;6.78;0.60;;;12.20;99.90;;;;;;5049178;28;20167;-41
2022/09/15 04:30:08;;;;;;;5.57;0.40;;;12.40;99.90;;;;;;5031050;28;20045;-40
2022/09/15 04:32:34;;;;;;;7.57;0.43;;;12.20;99.90;;;;;;5049650;28;20130;-42
2022/09/15 04:35:00;;;;;;;4.85;0.50;;;12.10;99.90;;;;;;5050690;28;20071;-47
2022/09/15 04:37:26;;;;;;;6.25;0.43;;;12.80;99.90;;;;;;5049531;28;20453;-41
2022/09/15 04:39:51;;;;;;;7.90;0.68;;;12.40;99.90;;;;;;5049295;28;20036;-41
2022/09/15 04:42:19;;;;;;;5.57;0.40;;;12.30;99.90;;;;;;5049158;28;20514;-41
2022/09/15 04:44:45;;;;;;;4.15;0.38;;;12.30;99.90;;;;;;5048605;28;20560;-41
2022/09/15 04:47:11;;;;;;;4.85;0.45;;;12.30;99.90;;;;;;5048517;28;20076;-40
2022/09/15 04:49:36;;;;;;;5.15;0.40;;;12.10;99.90;;;;;;5048811;28;20475;-40
2022/09/15 04:52:02;;;;;;;5.28;0.40;;;12.70;99.90;;;;;;5048981;28;20422;-41
2022/09/15 04:54:28;;;;;;;4.10;0.43;;;12.00;99.90;;;;;;5048609;28;20041;-41
2022/09/15 04:56:53;;;;;;;7.43;0.57;;;12.30;99.90;;;;;;5048722;28;20048;-41
2022/09/15 04:59:19;;;;;;;3.33;0.30;;;12.10;99.90;;;;;;5048617;28;20041;-40
2022/09/15 05:01:45;;;;;;;9.65;0.70;;;11.70;99.90;;;;;;5048504;28;20066;-40
2022/09/15 05:04:11;;;;;;;5.10;0.55;;;12.00;99.90;;;;;;5048563;28;20395;-40
2022/09/15 05:06:37;;;;;;;5.57;0.55;;;11.90;99.90;;;;;;5048727;28;20041;-41
2022/09/15 05:09:05;;;;;;;6.43;1.58;;;13.10;99.90;;;;;;5048400;28;20068;-41
2022/09/15 05:11:31;;;;;;;9.23;0.50;;;12.30;99.90;;;;;;5048247;28;20521;-40
2022/09/15 05:13:58;;;;;;;7.55;0.50;;;11.90;99.90;;;;;;5048737;28;20045;-42
2022/09/15 05:16:28;;;;;;;6.10;0.50;;;12.00;99.90;;;;;;5048094;28;20056;-40
2022/09/15 05:18:56;;;;;;;4.82;0.30;;;11.70;99.90;;;;;;5048104;28;20118;-40
2022/09/15 05:21:22;;;;;;;7.75;1.35;;;12.20;99.90;;;;;;5047548;28;20040;-40
2022/09/15 05:23:50;;;;;;;8.45;0.55;;;12.00;99.90;;;;;;5047821;28;20048;-41
2022/09/15 05:26:19;;;;;;;4.55;0.47;;;11.70;99.90;;;;;;5047752;28;20052;-41
2022/09/15 05:28:45;;;;;;;8.98;0.80;;;12.00;99.90;;;;;;5047829;28;20045;-42
2022/09/15 05:31:17;;;;;;;2.63;0.52;;;11.90;99.90;;;;;;5047379;28;20045;-40
2022/09/15 05:33:44;;;;;;;6.90;0.65;;;12.10;99.90;;;;;;5047858;28;20517;-41
2022/09/15 05:36:10;;;;;;;9.27;0.65;;;12.10;99.90;;;;;;5047827;28;20053;-40
2022/09/15 05:38:35;;;;;;;5.15;0.82;;;12.10;99.90;;;;;;5047889;28;20063;-40
2022/09/15 05:41:12;;;;;;;11.18;1.25;;;12.20;99.90;;;;;;5047209;28;20546;-41
2022/09/15 05:43:38;;;;;;;4.05;0.65;;;11.80;99.90;;;;;;5047439;28;20041;-40
2022/09/15 05:46:05;;;;;;;6.22;0.50;;;12.20;99.90;;;;;;5047268;28;20515;-40
2022/09/15 05:48:32;;;;;;;5.32;0.50;;;11.80;99.90;;;;;;5047422;28;20087;-40
2022/09/15 05:50:57;;;;;;;6.43;1.30;;;11.70;99.90;;;;;;5047600;28;20041;-40
2022/09/15 05:53:24;;;;;;;4.32;0.70;;;12.30;99.90;;;;;;5047755;28;20056;-40
2022/09/15 05:55:57;;;;;;;6.90;0.80;;;11.70;99.90;;;;;;5047505;28;20040;-40
2022/09/15 05:58:24;;;;;;;7.90;0.70;;;11.70;99.90;;;;;;5047565;28;20037;-40
2022/09/15 06:00:52;;;;;;;5.00;0.52;;;12.20;99.90;;;;;;5047392;28;20040;-40
2022/09/15 06:03:18;;;;;;;6.05;0.45;;;12.20;99.90;;;;;;5046963;28;20526;-40
2022/09/15 06:05:44;;;;;;;5.72;0.68;;;12.70;99.90;;;;;;5047237;28;20434;-40
2022/09/15 06:08:10;;;;;;;7.15;0.95;;;12.80;99.90;;;;;;5046736;28;20365;-40
2022/09/15 06:10:35;;;;;;;4.38;0.40;;;12.60;99.90;;;;;;5046624;28;20514;-40
2022/09/15 06:13:01;;;;;;;3.38;0.50;;;13.10;99.90;;;;;;5047007;28;20048;-40
2022/09/15 06:15:27;;;;;;;4.25;0.40;;;13.20;99.90;;;;;;5046786;28;20043;-41
2022/09/15 06:17:52;;;;;;;4.07;0.50;;;13.30;99.90;;;;;;5047438;28;20133;-40
2022/09/15 06:20:19;;;;;;;3.08;0.30;;;13.20;99.90;;;;;;5047028;28;20478;-40
2022/09/15 06:22:45;;;;;;;7.82;0.65;;;13.60;99.90;;;;;;5047024;28;20052;-41
2022/09/15 06:25:12;;;;;;;6.22;0.30;;;13.50;99.90;;;;;;5047096;28;20052;-40
2022/09/15 06:27:38;;;;;;;6.65;0.93;;;13.60;99.90;;;;;;5047395;28;20041;-41
2022/09/15 06:30:05;;;;;;;3.33;0.45;;;13.60;99.90;;;;;;5047057;28;20624;-41
2022/09/15 06:32:30;;;;;;;5.45;0.45;;;13.20;99.90;;;;;;5046796;28;20040;-40
2022/09/15 06:34:56;;;;;;;11.45;0.57;;;13.50;99.90;;;;;;5046167;28;20086;-41
2022/09/15 06:37:22;;;;;;;8.10;0.90;;;13.20;99.90;;;;;;5046820;28;20045;-41
2022/09/15 06:39:47;;;;;;;5.97;0.40;;;13.40;99.90;;;;;;5046957;28;20040;-40
2022/09/15 06:42:14;;;;;;;6.65;0.45;;;13.30;99.90;;;;;;5046702;28;20128;-41
2022/09/15 06:44:39;;;;;;;4.82;0.40;;;14.10;99.90;;;;;;5046703;28;20076;-41
2022/09/15 06:47:06;;;;;;;3.65;0.30;;;13.80;99.90;;;;;;5047075;28;20076;-40
2022/09/15 06:49:31;;;;;;;8.52;0.60;;;13.60;99.90;;;;;;5046688;28;20037;-40
2022/09/15 06:51:57;;;;;;;7.55;0.68;;;13.70;99.90;;;;;;5046837;28;20478;-42
2022/09/15 06:54:23;;;;;;;5.65;0.50;;;13.70;99.90;;;;;;5045181;28;20041;-41
2022/09/15 06:56:49;;;;;;;7.05;1.02;;;13.80;99.90;;;;;;5045917;28;20032;-41
2022/09/15 06:59:15;;;;;;;4.07;0.38;;;13.90;99.90;;;;;;5045890;28;20483;-41
2022/09/15 07:01:42;;;;;;;4.40;0.38;;;14.00;99.90;;;;;;5044448;28;20095;-41
2022/09/15 07:04:08;;;;;;;6.40;0.45;;;14.10;99.90;;;;;;5044389;28;20080;-41
2022/09/15 07:06:37;;;;;;;9.48;0.98;;;14.10;99.90;;;;;;5044485;28;20499;-41
2022/09/15 07:09:04;;;;;;;5.20;0.50;;;14.20;99.90;;;;;;5042522;28;20499;-41
2022/09/15 07:11:31;;;;;;;4.90;0.30;;;14.40;99.90;;;;;;5045041;28;20041;-42
2022/09/15 07:13:57;;;;;;;7.10;0.75;;;14.60;99.90;;;;;;5045246;28;20045;-42
2022/09/15 07:16:24;;;;;;;6.00;0.60;;;14.90;99.90;;;;;;5045464;28;20387;-41
2022/09/15 07:18:50;;;;;;;5.10;0.73;;;14.80;99.90;;;;;;5045572;28;20042;-41
2022/09/15 07:21:18;;;;;;;3.20;0.43;;;14.90;99.90;;;;;;5045539;28;20047;-41
2022/09/15 07:23:45;;;;;;;6.93;0.35;;;15.00;99.90;;;;;;5043343;28;20041;-41
2022/09/15 07:26:18;;;;;;;4.72;0.40;;;15.20;99.90;;;;;;5045245;28;20285;-41
2022/09/15 07:28:52;;;;;;;6.38;0.50;;;15.20;99.90;;;;;;5042543;28;20521;-41
2022/09/15 07:31:21;;;;;;;4.00;0.60;;;15.40;99.90;;;;;;5045034;28;20048;-41
2022/09/15 07:33:47;;;;;;;4.82;0.45;;;15.70;99.90;;;;;;5045244;28;20479;-40
2022/09/15 07:36:14;;;;;;;6.80;0.60;;;15.70;99.90;;;;;;5044380;28;20040;-40
2022/09/15 07:38:49;;;;;;;3.58;0.30;;;15.70;99.90;;;;;;5045215;28;20074;-41
2022/09/15 07:41:23;;;;;;;5.43;0.40;;;15.90;99.90;;;;;;5042809;28;20048;-41
2022/09/15 07:43:50;;;;;;;2.55;0.20;;;16.00;99.90;;;;;;5045297;28;20062;-41
2022/09/15 07:46:17;;;;;;;3.95;0.43;;;16.20;99.90;;;;;;5045322;28;20487;-40
2022/09/15 07:48:48;;;;;;;2.85;0.80;;;16.30;99.90;;;;;;5045383;28;20037;-39
2022/09/15 07:51:14;;;;;;;4.28;0.40;;;16.50;99.90;;;;;;5043161;28;20119;-40
2022/09/15 07:53:41;;;;;;;6.78;0.40;;;16.60;99.90;;;;;;5045317;28;20070;-40
2022/09/15 07:56:07;;;;;;;4.57;0.30;;;16.80;99.90;;;;;;5044996;28;20044;-40
2022/09/15 07:58:33;;;;;;;3.40;0.35;;;17.00;99.90;;;;;;5045547;28;20043;-40
2022/09/15 08:01:07;;;;;;;6.53;1.90;;;17.20;99.90;;;;;;5043734;28;20041;-40
2022/09/15 08:03:33;;;;;;;3.72;0.30;;;17.40;99.90;;;;;;5042666;28;20041;-39
2022/09/15 08:06:01;;;;;;;4.38;0.30;;;17.50;99.90;;;;;;5044251;28;20088;-40
2022/09/15 08:08:27;;;;;;;3.95;0.43;;;17.60;99.90;;;;;;5043849;28;20222;-39
2022/09/15 08:10:53;;;;;;;5.22;0.47;;;17.60;99.90;;;;;;5045387;28;20079;-40
2022/09/15 08:13:19;;;;;;;4.82;0.40;;;17.60;99.90;;;;;;5045332;28;20041;-40
2022/09/15 08:15:45;;;;;;;4.50;0.40;;;17.70;99.90;;;;;;5044900;28;20087;-40
2022/09/15 08:18:11;;;;;;;7.10;0.65;;;17.80;99.90;;;;;;5041736;28;20040;-40
2022/09/15 08:20:38;;;;;;;6.18;0.20;;;17.80;99.90;;;;;;5012947;28;20045;-37
2022/09/15 08:23:03;;;;;;;9.10;0.40;;;18.10;99.90;;;;;;5029768;28;20522;-41
2022/09/15 08:25:29;;;;;;;5.57;0.47;;;17.90;99.90;;;;;;5036505;28;20035;-39
2022/09/15 08:27:55;;;;;;;9.25;0.73;;;17.90;99.90;;;;;;5018566;28;20554;-39
2022/09/15 08:30:22;;;;;;;6.60;0.30;;;17.80;99.90;;;;;;5036883;28;20063;-37
2022/09/15 08:32:48;;;;;;;4.05;0.35;;;17.70;99.90;;;;;;5035878;28;20414;-51
2022/09/15 08:35:15;;;;;;;4.60;0.77;;;17.60;99.90;;;;;;5035626;28;20041;-48
2022/09/15 08:37:41;;;;;;;2.13;0.20;;;17.50;99.90;;;;;;5034587;28;20104;-50
2022/09/15 08:40:16;;;;;;;3.85;0.30;;;17.50;99.90;;;;;;5036990;28;20568;-39
2022/09/15 08:42:45;;;;;;;4.30;0.82;;;17.60;99.90;;;;;;5036475;28;20037;-39
2022/09/15 08:46:06;;;;;;;7.93;0.50;;;17.90;99.90;;;;;;5035640;28;20048;-42
2022/09/15 08:48:39;;;;;;;6.15;0.68;;;18.60;99.90;;;;;;5023412;28;20041;-42
2022/09/15 08:51:11;;;;;;;2.90;0.32;;;19.00;99.90;;;;;;5036050;28;20094;-45
2022/09/15 08:53:48;;;;;;;6.53;0.77;;;19.10;99.90;;;;;;5035570;28;20547;-43
2022/09/15 08:56:17;;;;;;;3.13;0.30;;;19.30;99.90;;;;;;5035697;28;20045;-41
2022/09/15 08:58:44;;;;;;;4.55;0.38;;;19.60;99.90;;;;;;5037682;28;20610;-43
2022/09/15 09:01:09;;;;;;;1.50;0.20;;;20.00;99.90;;;;;;5041026;28;20128;-42
2022/09/15 09:04:10;;;;;;;2.80;0.30;;;20.80;98.20;;;;;;5040286;28;20033;-41
2022/09/15 09:06:54;;;;;;;7.43;0.50;;;21.00;96.20;;;;;;5039146;28;20892;-41
2022/09/15 09:09:42;;;;;;;5.55;0.38;;;20.90;95.80;;;;;;5039545;28;20130;-44
2022/09/15 09:12:16;;;;;;;5.35;0.30;;;20.60;95.60;;;;;;5038830;28;20464;-45
2022/09/15 09:14:55;;;;;;;6.57;0.45;;;20.30;95.90;;;;;;5038130;28;20445;-46
2022/09/15 09:17:44;;;;;;;4.07;0.20;;;20.00;96.20;;;;;;5039455;28;20414;-47
2022/09/15 09:20:21;;;;;;;4.90;0.30;;;19.90;96.40;;;;;;5004126;28;20774;-43
2022/09/15 09:22:51;;;;;;;3.20;0.35;;;19.90;96.40;;;;;;5039943;28;20047;-44
2022/09/15 09:25:21;;;;;;;5.15;0.65;;;19.90;96.50;;;;;;5021725;28;20506;-45
2022/09/15 09:27:50;;;;;;;4.90;0.30;;;19.80;96.10;;;;;;4989598;28;20562;-44
2022/09/15 09:30:21;;;;;;;4.70;0.35;;;19.80;96.20;;;;;;5024424;28;20533;-41
2022/09/15 09:33:04;;;;;;;3.60;0.30;;;19.70;96.00;;;;;;5049720;28;20178;-41
2022/09/15 09:35:39;;;;;;;3.88;0.57;;;19.60;96.00;;;;;;5048879;28;20032;-40
2022/09/15 09:38:06;;;;;;;3.58;0.90;;;19.40;96.00;;;;;;5049317;28;20045;-39
2022/09/15 09:40:32;;;;;;;4.55;0.52;;;19.20;96.60;;;;;;5047725;28;20045;-40
2022/09/15 09:42:59;;;;;;;4.43;0.63;;;19.00;97.00;;;;;;5047712;28;20048;-39
2022/09/15 09:45:25;;;;;;;2.85;0.30;;;18.80;97.20;;;;;;5047634;28;20388;-39
2022/09/15 09:47:53;;;;;;;3.20;0.52;;;18.60;97.60;;;;;;5047531;28;20040;-39
2022/09/15 09:50:42;;;;;;;4.57;0.47;;;18.50;98.20;;;;;;5047605;28;20609;-40
2022/09/15 09:53:35;;;;;;;2.67;0.30;;;18.40;98.30;;;;;;5047278;28;20037;-39
2022/09/15 09:56:23;;;;;;;3.00;0.35;;;18.30;98.60;;;;;;5045890;28;20079;-39
2022/09/15 09:58:49;;;;;;;5.03;0.30;;;18.50;98.80;;;;;;5047712;28;20041;-40
2022/09/15 10:01:17;;;;;;;3.53;0.20;;;18.40;99.30;;;;;;5048716;28;20433;-39
2022/09/15 10:03:44;;;;;;;7.45;1.10;;;18.50;99.70;;;;;;5048852;28;20055;-53
2022/09/15 10:06:19;;;;;;;6.75;1.00;;;18.50;99.90;;;;;;5048817;28;20132;-53
2022/09/15 10:08:56;;;;;;;4.28;0.50;;;18.90;99.90;;;;;;5047613;28;20087;-54
2022/09/15 10:11:46;;;;;;;5.80;0.30;;;18.70;99.90;;;;;;5047388;28;20067;-53
2022/09/15 10:14:21;;;;;;;6.50;0.70;;;18.90;99.90;;;;;;5048237;28;20052;-55
2022/09/15 10:17:01;;;;;;;5.80;0.47;;;19.10;99.90;;;;;;5047605;28;20403;-54
2022/09/15 10:19:29;;;;;;;5.97;0.32;;;19.30;99.90;;;;;;5047900;28;20075;-53
2022/09/15 10:21:57;;;;;;;3.03;0.38;;;19.50;99.90;;;;;;5048266;28;20045;-54
2022/09/15 10:24:26;;;;;;;4.00;0.57;;;19.60;99.90;;;;;;5047685;28;20095;-54
2022/09/15 10:27:04;;;;;;;6.30;0.40;;;19.70;99.90;;;;;;5047161;28;20499;-54
2022/09/15 10:29:37;;;;;;;5.53;0.30;;;19.40;99.90;;;;;;5048045;28;20128;-54
2022/09/15 10:32:22;;;;;;;5.93;0.40;;;18.90;99.90;;;;;;5047799;28;20055;-53
2022/09/15 10:34:48;;;;;;;8.80;0.55;;;18.30;99.90;;;;;;5046964;28;20063;-55
2022/09/15 10:37:24;;;;;;;6.60;0.75;;;17.80;99.90;;;;;;5047220;28;20467;-53
2022/09/15 10:39:52;;;;;;;8.75;0.60;;;17.60;99.90;;;;;;5046948;28;20033;-53
2022/09/15 10:42:23;;;;;;;3.78;0.50;;;18.00;99.90;;;;;;5047358;28;20566;-54
2022/09/15 10:45:06;;;;;;;3.08;0.30;;;17.60;99.90;;;;;;5047429;28;20045;-53
2022/09/15 10:48:05;;;;;;;3.00;0.30;;;17.60;99.90;;;;;;5046582;28;20051;-54
2022/09/15 10:51:10;;;;;;;2.70;0.20;;;17.60;99.90;;;;;;5047297;28;20049;-54
2022/09/15 10:53:35;;;;;;;3.85;0.30;;;18.20;99.90;;;;;;5046560;28;20127;-55
2022/09/15 10:56:10;;;;;;;4.15;0.40;;;18.30;99.90;;;;;;5046525;28;20051;-53
2022/09/15 10:58:55;;;;;;;4.55;0.32;;;18.60;99.90;;;;;;5046563;28;20524;-53
2022/09/15 11:01:23;;;;;;;3.13;0.40;;;18.90;99.90;;;;;;5046977;28;20053;-52
2022/09/15 11:04:01;;;;;;;1.75;0.20;;;19.20;99.90;;;;;;5046769;28;20509;-53
2022/09/15 11:07:05;;;;;;;2.65;0.20;;;19.30;99.90;;;;;;5046953;28;20380;-54
2022/09/15 11:09:54;;;;;;;4.55;0.40;;;19.50;99.90;;;;;;5046402;28;20061;-55
2022/09/15 11:12:48;;;;;;;2.63;0.30;;;19.60;99.90;;;;;;5025895;28;20494;-55
2022/09/15 11:15:19;;;;;;;3.55;0.43;;;19.70;99.90;;;;;;5046325;28;20120;-55
2022/09/15 11:17:52;;;;;;;2.85;0.20;;;19.70;99.90;;;;;;5046109;28;20037;-54
2022/09/15 11:20:43;;;;;;;4.95;0.40;;;19.60;99.90;;;;;;5047044;28;20075;-55
2022/09/15 11:23:20;;;;;;;4.90;0.30;;;19.30;99.90;;;;;;5045853;28;20049;-55
2022/09/15 11:25:51;;;;;;;3.22;0.30;;;19.00;99.90;;;;;;5046662;28;20048;-53
2022/09/15 11:28:52;;;;;;;3.03;0.30;;;18.50;99.90;;;;;;5046662;28;20163;-54
2022/09/15 11:31:22;;;;;;;2.30;0.60;;;18.20;99.90;;;;;;5046705;28;20120;-55
2022/09/15 11:34:08;;;;;;;6.47;1.05;;;17.80;99.90;;;;;;5045249;28;20064;-56
2022/09/15 11:36:48;;;;;;;6.95;0.50;;;17.80;99.90;;;;;;5046111;28;20064;-53
2022/09/15 11:39:22;;;;;;;5.43;0.30;;;17.80;99.90;;;;;;5028432;28;20044;-55
2022/09/15 11:41:55;;;;;;;1.85;0.30;;;18.10;99.90;;;;;;5046221;28;20055;-58
2022/09/15 11:44:36;;;;;;;4.38;0.30;;;18.00;99.90;;;;;;5045849;28;20041;-57
2022/09/15 11:47:27;;;;;;;9.13;1.67;;;18.00;99.90;;;;;;5044754;28;20140;-57
2022/09/15 11:50:13;;;;;;;5.70;0.60;;;18.00;99.90;;;;;;5045689;28;20044;-53
2022/09/15 11:53:03;;;;;;;3.13;0.20;;;18.10;99.90;;;;;;5046615;28;20045;-55
2022/09/15 11:55:34;;;;;;;5.50;0.28;;;18.10;99.90;;;;;;5045496;28;20103;-55
2022/09/15 11:58:17;;;;;;;2.60;0.17;;;18.20;99.90;;;;;;5046539;28;20399;-58
2022/09/15 12:01:05;;;;;;;2.20;0.20;;;18.30;99.90;;;;;;5030408;28;20533;-56
2022/09/15 12:04:05;;;;;;;2.97;0.20;;;18.80;99.90;;;;;;5000638;28;20107;-52
2022/09/15 12:06:31;;;;;;;1.48;0.20;;;18.40;99.90;;;;;;5039260;28;20520;-56
2022/09/15 12:09:02;;;;;;;1.98;0.17;;;18.40;99.90;;;;;;5038690;28;20059;-57
2022/09/15 12:11:35;;;;;;;2.38;0.30;;;18.50;99.90;;;;;;5039676;28;20048;-59
2022/09/15 12:14:04;;;;;;;1.77;0.13;;;18.60;99.90;;;;;;5019528;28;20048;-58
2022/09/15 12:16:31;;;;;;;2.58;0.10;;;18.70;99.90;;;;;;5038540;28;20099;-59
2022/09/15 12:19:07;;;;;;;1.15;0.10;;;18.60;99.90;;;;;;5037333;28;20083;-57
2022/09/15 12:21:48;;;;;;;2.70;0.38;;;18.50;99.90;;;;;;5039557;28;20045;-57
2022/09/15 12:24:39;;;;;;;2.13;0.10;;;18.40;99.90;;;;;;5021170;28;20037;-57
2022/09/15 12:27:13;;;;;;;1.27;0.20;;;18.30;99.90;;;;;;5040163;28;20041;-54
2022/09/15 12:29:50;;;;;;;2.40;0.10;;;18.00;99.90;;;;;;5039448;28;20044;-54
2022/09/15 12:32:30;;;;;;;1.83;0.20;;;18.00;99.90;;;;;;5039397;28;20041;-57
2022/09/15 12:35:08;;;;;;;2.13;0.20;;;17.90;99.90;;;;;;5041962;28;20088;-42
2022/09/15 12:37:43;;;;;;;4.45;0.30;;;18.00;99.90;;;;;;5043038;28;20044;-41
2022/09/15 12:40:39;;;;;;;7.30;0.35;;;18.20;99.90;;;;;;5040162;28;20534;-50
2022/09/15 12:43:11;;;;;;;4.07;0.28;;;18.40;99.90;;;;;;5042186;28;20859;-48
2022/09/15 12:45:38;;;;;;;;;;;18.50;99.90;;;;;;5042183;28;20055;-42
2022/09/15 12:48:05;;;;;;;5.20;0.20;;;18.60;99.90;;;;;;5043110;28;19952;-43
2022/09/15 12:50:37;;;;;;;6.28;0.30;;;18.60;99.90;;;;;;5042247;28;20550;-48
2022/09/15 12:53:21;;;;;;;4.43;0.80;;;18.70;99.90;;;;;;5041144;28;20043;-43
2022/09/15 12:55:51;;;;;;;3.38;0.20;;;18.70;99.90;;;;;;5043869;28;20096;-48
2022/09/15 12:58:21;;;;;;;3.88;0.25;;;19.00;99.90;;;;;;5041692;28;20450;-53
2022/09/15 13:00:47;;;;;;;6.32;1.23;;;19.00;99.90;;;;;;5043383;28;20036;-45
2022/09/15 13:03:37;;;;;;;5.57;0.20;;;19.30;99.90;;;;;;5043000;28;20041;-42
2022/09/15 13:06:20;;;;;;;2.33;0.20;;;19.40;99.90;;;;;;5042684;28;20556;-46
2022/09/15 13:08:46;;;;;;;2.08;0.17;;;19.30;99.90;;;;;;5040827;28;20105;-46
2022/09/15 13:11:27;;;;;;;1.02;0.10;;;19.30;99.40;;;;;;5041569;28;20040;-43
2022/09/15 13:14:11;;;;;;;2.28;0.15;;;19.10;98.60;;;;;;5041885;28;20036;-50